createdAt,value
2023-08-11T00:01:40.565Z,2.25
2023-08-11T00:04:42.475Z,2.72
2023-08-11T00:07:46.242Z,2.70
2023-08-11T00:10:48.287Z,2.63
2023-08-11T00:13:50.687Z,2.42
2023-08-11T00:19:54.353Z,2.85
2023-08-11T00:22:56.573Z,2.55
2023-08-11T00:25:58.710Z,2.40
2023-08-11T00:29:00.616Z,2.45
2023-08-11T00:32:02.568Z,2.75
2023-08-11T00:35:05.274Z,2.80
2023-08-11T00:38:07.274Z,2.85
2023-08-11T00:41:09.310Z,2.42
2023-08-11T00:44:11.354Z,2.80
2023-08-11T00:47:13.570Z,2.60
2023-08-11T00:50:18.734Z,3.05
2023-08-11T00:53:21.270Z,2.97
2023-08-11T00:56:24.330Z,2.78
2023-08-11T00:59:27.087Z,2.83
2023-08-11T01:02:29.108Z,3.40
2023-08-11T01:05:35.703Z,3.10
2023-08-11T01:09:19.868Z,3.25
2023-08-11T01:12:24.966Z,3.10
2023-08-11T01:15:41.585Z,3.78
2023-08-11T01:18:44.152Z,4.00
2023-08-11T01:21:47.582Z,3.60
2023-08-11T01:24:50.147Z,4.13
2023-08-11T01:28:00.140Z,4.22
2023-08-11T01:31:02.190Z,4.70
2023-08-11T01:34:04.443Z,4.45
2023-08-11T01:37:06.742Z,4.10
2023-08-11T01:40:12.290Z,4.53
2023-08-11T01:43:16.437Z,4.32
2023-08-11T01:46:19.149Z,4.30
2023-08-11T01:49:24.208Z,4.57
2023-08-11T01:52:27.363Z,4.40
2023-08-11T01:55:30.228Z,4.15
2023-08-11T01:58:32.666Z,4.32
2023-08-11T02:01:34.700Z,4.07
2023-08-11T02:04:36.871Z,4.72
2023-08-11T02:07:39.554Z,4.68
2023-08-11T02:10:41.512Z,4.93
2023-08-11T02:13:44.490Z,4.72
2023-08-11T02:16:46.916Z,4.57
2023-08-11T02:19:52.015Z,4.43
2023-08-11T02:22:55.156Z,4.43
2023-08-11T02:25:58.173Z,4.07
2023-08-11T02:29:00.129Z,4.10
2023-08-11T02:32:04.635Z,4.50
2023-08-11T02:35:07.384Z,4.88
2023-08-11T02:38:09.974Z,4.40
2023-08-11T02:41:12.404Z,3.90
2023-08-11T02:44:14.626Z,4.20
2023-08-11T02:47:16.583Z,4.57
2023-08-11T02:50:19.105Z,4.32
2023-08-11T02:53:21.132Z,4.40
2023-08-11T02:56:23.116Z,4.18
2023-08-11T02:59:25.079Z,4.03
2023-08-11T03:02:27.606Z,4.63
2023-08-11T03:05:29.580Z,3.72
2023-08-11T03:08:33.012Z,4.07
2023-08-11T03:11:35.979Z,3.97
2023-08-11T03:14:37.977Z,3.58
2023-08-11T03:17:40.102Z,3.83
2023-08-11T03:20:43.489Z,3.53
2023-08-11T03:23:45.386Z,3.78
2023-08-11T03:26:47.347Z,4.07
2023-08-11T03:29:49.429Z,3.83
2023-08-11T03:32:52.748Z,4.00
2023-08-11T03:35:56.316Z,3.97
2023-08-11T03:38:58.335Z,4.05
2023-08-11T03:42:01.343Z,3.95
2023-08-11T03:45:03.978Z,3.80
2023-08-11T03:48:07.406Z,4.10
2023-08-11T03:51:10.822Z,4.15
2023-08-11T03:54:13.219Z,4.32
2023-08-11T03:57:15.804Z,3.47
2023-08-11T04:00:20.869Z,4.38
2023-08-11T04:03:33.592Z,4.72
2023-08-11T04:06:35.570Z,4.97
2023-08-11T04:09:41.166Z,8.80
2023-08-11T04:12:43.093Z,6.80
2023-08-11T04:15:48.904Z,5.38
2023-08-11T04:18:52.032Z,4.88
2023-08-11T04:21:54.013Z,4.68
2023-08-11T04:24:56.615Z,4.80
2023-08-11T04:28:00.944Z,4.60
2023-08-11T04:31:03.080Z,3.80
2023-08-11T04:34:07.749Z,3.47
2023-08-11T04:40:14.988Z,4.30
2023-08-11T04:43:20.143Z,4.47
2023-08-11T04:46:22.692Z,4.13
2023-08-11T04:49:25.329Z,4.20
2023-08-11T04:52:28.283Z,3.97
2023-08-11T04:55:32.381Z,3.90
2023-08-11T04:58:39.391Z,4.45
2023-08-11T05:01:41.473Z,4.10
2023-08-11T05:07:45.562Z,4.47
2023-08-11T05:10:47.389Z,4.32
2023-08-11T05:13:49.270Z,4.47
2023-08-11T05:16:51.340Z,4.40
2023-08-11T05:19:53.296Z,4.45
2023-08-11T05:22:55.279Z,4.40
2023-08-11T05:25:57.131Z,4.72
2023-08-11T05:28:59.289Z,4.30
2023-08-11T05:32:01.226Z,4.22
2023-08-11T05:35:03.901Z,4.65
2023-08-11T05:38:06.457Z,21.95
2023-08-11T05:41:08.345Z,16.75
2023-08-11T05:44:10.336Z,9.90
2023-08-11T05:47:12.501Z,7.68
2023-08-11T05:50:14.575Z,6.78
2023-08-11T05:53:17.109Z,6.47
2023-08-11T05:56:18.955Z,6.90
2023-08-11T05:59:23.779Z,6.45
2023-08-11T06:02:25.694Z,8.32
2023-08-11T06:05:28.171Z,8.00
2023-08-11T06:08:30.082Z,9.00
2023-08-11T06:11:32.103Z,7.88
2023-08-11T06:14:34.672Z,8.27
2023-08-11T06:17:37.772Z,7.05
2023-08-11T06:20:42.119Z,6.95
2023-08-11T06:23:45.220Z,6.72
2023-08-11T06:26:47.202Z,6.53
2023-08-11T06:29:49.480Z,6.85
2023-08-11T06:32:51.490Z,6.15
2023-08-11T06:35:54.247Z,6.30
2023-08-11T06:38:56.140Z,6.25
2023-08-11T06:41:58.113Z,5.53
2023-08-11T06:45:19.973Z,6.30
2023-08-11T06:48:21.906Z,5.90
2023-08-11T06:51:23.790Z,6.43
2023-08-11T06:54:25.707Z,5.95
2023-08-11T06:57:27.713Z,6.10
2023-08-11T07:00:29.602Z,5.95
2023-08-11T07:03:34.623Z,5.90
2023-08-11T07:06:36.963Z,5.95
2023-08-11T07:12:40.765Z,5.47
2023-08-11T07:15:43.739Z,5.28
2023-08-11T07:18:45.826Z,5.30
2023-08-11T07:21:47.761Z,4.78
2023-08-11T07:24:49.641Z,5.05
2023-08-11T07:27:51.485Z,4.78
2023-08-11T07:30:53.414Z,4.97
2023-08-11T07:33:55.319Z,4.70
2023-08-11T07:36:57.270Z,4.40
2023-08-11T07:39:59.184Z,4.55
2023-08-11T07:43:01.294Z,4.32
2023-08-11T07:49:05.317Z,4.53
2023-08-11T07:55:09.437Z,5.10
2023-08-11T07:58:11.889Z,4.32
2023-08-11T08:01:13.896Z,4.25
2023-08-11T08:04:15.979Z,4.80
2023-08-11T08:07:17.854Z,4.40
2023-08-11T08:10:21.468Z,4.35
2023-08-11T08:13:23.510Z,4.13
2023-08-11T08:16:25.546Z,4.20
2023-08-11T08:22:30.227Z,4.25
2023-08-11T08:25:32.213Z,3.90
2023-08-11T08:28:34.525Z,4.50
2023-08-11T08:31:37.039Z,3.95
2023-08-11T08:34:39.155Z,4.07
2023-08-11T08:40:44.178Z,4.03
2023-08-11T08:43:47.586Z,3.88
2023-08-11T08:46:53.241Z,4.03
2023-08-11T08:49:57.254Z,3.70
2023-08-11T08:53:02.321Z,3.95
2023-08-11T08:56:06.159Z,3.75
2023-08-11T08:59:09.382Z,3.80
2023-08-11T09:02:13.780Z,4.00
2023-08-11T09:05:16.369Z,3.83
2023-08-11T09:08:18.299Z,3.95
2023-08-11T09:11:22.882Z,4.07
2023-08-11T09:14:25.035Z,4.30
2023-08-11T09:17:27.106Z,4.20
2023-08-11T09:20:30.405Z,3.80
2023-08-11T09:23:34.147Z,4.00
2023-08-11T09:26:36.112Z,4.25
2023-08-11T09:29:38.477Z,4.75
2023-08-11T09:32:40.659Z,4.70
2023-08-11T12:43:33.977Z,4.40
2023-08-11T12:46:37.430Z,4.75
2023-08-11T12:49:39.633Z,5.07
2023-08-11T12:52:41.631Z,4.88
2023-08-11T12:55:44.043Z,4.55
2023-08-11T12:58:45.961Z,4.55
2023-08-11T13:01:48.061Z,4.00
2023-08-11T13:07:51.956Z,4.03
2023-08-11T13:10:56.818Z,3.47
2023-08-11T13:13:58.767Z,3.75
2023-08-11T13:17:00.752Z,3.63
2023-08-11T13:20:07.636Z,3.65
2023-08-11T13:23:09.777Z,3.65
2023-08-11T13:26:13.472Z,3.90
2023-08-11T13:29:15.369Z,3.50
2023-08-11T13:32:17.323Z,3.50
2023-08-11T13:35:19.250Z,3.80
2023-08-11T13:38:21.392Z,3.15
2023-08-11T13:41:23.245Z,4.10
2023-08-11T13:44:25.167Z,3.45
2023-08-11T13:47:27.713Z,3.28
2023-08-11T13:50:29.810Z,3.25
2023-08-11T13:53:31.778Z,3.10
2023-08-11T13:56:36.356Z,3.10
2023-08-11T13:59:38.282Z,2.88
2023-08-11T14:02:40.201Z,2.53
2023-08-11T14:05:42.514Z,2.60
2023-08-11T14:11:46.858Z,2.65
2023-08-11T14:14:49.126Z,2.67
2023-08-11T14:20:52.905Z,2.57
2023-08-11T14:23:55.962Z,2.40
2023-08-11T14:26:58.101Z,2.38
2023-08-11T14:29:59.968Z,2.67
2023-08-11T14:33:01.987Z,2.65
2023-08-11T14:39:13.884Z,2.90
2023-08-11T14:42:15.942Z,2.70
2023-08-11T14:45:17.864Z,2.83
2023-08-11T14:48:20.666Z,3.08
2023-08-11T14:51:22.704Z,2.90
2023-08-11T14:54:27.775Z,3.13
2023-08-11T14:57:29.982Z,3.40
2023-08-11T15:00:33.337Z,3.20
2023-08-11T15:03:35.309Z,4.13
2023-08-11T15:06:37.340Z,3.28
2023-08-11T15:09:39.961Z,3.00
2023-08-11T15:12:42.521Z,3.10
2023-08-11T15:15:44.417Z,3.00
2023-08-11T15:18:46.296Z,3.38
2023-08-11T15:21:48.272Z,3.00
2023-08-11T15:24:50.220Z,3.25
2023-08-11T15:27:52.126Z,2.78
2023-08-11T15:30:54.098Z,3.00
2023-08-11T15:33:56.016Z,2.85
2023-08-11T15:36:57.895Z,2.50
2023-08-11T15:39:59.774Z,2.65
2023-08-11T15:43:01.885Z,2.70
2023-08-11T15:46:04.527Z,2.30
2023-08-11T15:49:06.621Z,2.97
2023-08-11T15:52:08.886Z,2.35
2023-08-11T15:55:11.068Z,1.70
2023-08-11T15:58:13.026Z,2.33
2023-08-11T16:01:15.071Z,2.22
2023-08-11T16:04:17.120Z,2.33
2023-08-11T16:07:19.106Z,2.63
2023-08-11T16:10:21.062Z,2.53
2023-08-11T16:13:22.964Z,2.42
2023-08-11T16:16:25.161Z,2.00
2023-08-11T16:19:27.139Z,2.40
2023-08-11T16:22:31.366Z,2.20
2023-08-11T16:25:33.339Z,2.22
2023-08-11T16:28:35.316Z,2.17
2023-08-11T16:31:37.226Z,2.08
2023-08-11T16:34:39.135Z,2.00
2023-08-11T16:37:41.167Z,2.00
2023-08-11T16:40:43.261Z,2.03
2023-08-11T16:43:45.983Z,2.22
2023-08-11T16:46:47.922Z,2.10
2023-08-11T16:49:51.447Z,1.90
2023-08-11T16:52:54.650Z,2.30
2023-08-11T16:55:56.628Z,2.67
2023-08-11T16:59:01.215Z,2.47
2023-08-11T17:02:03.129Z,2.70
2023-08-11T17:05:05.436Z,2.63
2023-08-11T17:11:11.897Z,2.50
2023-08-11T17:14:13.820Z,2.25
2023-08-11T17:17:15.864Z,2.42
2023-08-11T17:20:17.994Z,2.20
2023-08-11T17:23:20.268Z,2.00
2023-08-11T17:29:24.509Z,2.08
2023-08-11T17:32:26.362Z,1.63
2023-08-11T17:35:28.249Z,1.60
2023-08-11T17:38:30.821Z,1.73
2023-08-11T17:41:32.668Z,1.42
2023-08-11T17:44:34.659Z,1.50
2023-08-11T17:47:36.773Z,1.92
2023-08-11T17:50:39.834Z,1.42
2023-08-11T17:53:42.623Z,1.60
2023-08-11T17:56:47.338Z,1.77
2023-08-11T17:59:49.218Z,1.98
2023-08-11T18:02:51.577Z,1.83
2023-08-11T18:05:53.558Z,1.70
2023-08-11T18:08:55.697Z,1.80
2023-08-11T18:11:57.633Z,1.80
2023-08-11T18:15:01.560Z,1.50
2023-08-11T18:18:04.167Z,2.00
2023-08-11T18:21:15.295Z,1.90
2023-08-11T18:24:22.706Z,2.00
2023-08-11T18:27:24.682Z,2.30
2023-08-11T18:30:26.626Z,1.98
2023-08-11T18:33:28.577Z,1.90
2023-08-11T18:36:30.515Z,2.10
2023-08-11T18:39:32.418Z,1.98
2023-08-11T18:42:34.417Z,2.08
2023-08-11T18:45:36.312Z,2.58
2023-08-11T18:48:38.208Z,2.10
2023-08-11T18:51:41.401Z,1.92
2023-08-11T18:54:43.416Z,2.33
2023-08-11T18:57:45.352Z,2.10
2023-08-11T19:00:47.212Z,2.33
2023-08-11T19:03:49.186Z,2.63
2023-08-11T19:06:51.174Z,2.05
2023-08-11T19:09:53.107Z,2.20
2023-08-11T19:12:55.307Z,2.38
2023-08-11T19:15:57.382Z,2.25
2023-08-11T19:19:00.007Z,2.20
2023-08-11T19:22:02.003Z,1.98
2023-08-11T19:25:05.569Z,2.17
2023-08-11T19:28:08.446Z,1.90
2023-08-11T19:31:10.505Z,2.13
2023-08-11T19:34:12.685Z,2.20
2023-08-11T19:37:14.928Z,2.08
2023-08-11T19:40:16.983Z,1.98
2023-08-11T19:43:19.002Z,2.25
2023-08-11T19:46:21.014Z,2.00
2023-08-11T19:49:23.089Z,2.13
2023-08-11T19:52:24.944Z,2.03
2023-08-11T19:55:27.017Z,1.70
2023-08-11T19:58:28.880Z,1.73
2023-08-11T20:01:30.804Z,1.80
2023-08-11T20:04:32.763Z,1.80
2023-08-11T20:07:34.614Z,1.60
2023-08-11T20:10:36.604Z,1.80
2023-08-11T20:13:38.525Z,1.40
2023-08-11T20:16:40.477Z,1.40
2023-08-11T20:19:42.348Z,1.30
2023-08-11T20:22:44.956Z,1.00
2023-08-11T20:25:47.148Z,0.93
2023-08-11T20:28:49.121Z,1.10
2023-08-11T20:31:55.545Z,1.00
2023-08-11T20:34:57.471Z,1.08
2023-08-11T20:37:59.574Z,1.00
2023-08-11T20:41:01.448Z,0.90
2023-08-11T20:44:03.579Z,0.80
2023-08-11T20:47:05.671Z,0.80
2023-08-11T20:50:08.075Z,0.80
2023-08-11T20:56:12.996Z,0.90
2023-08-11T20:59:14.940Z,0.90
2023-08-11T21:02:16.863Z,0.80
2023-08-11T21:05:18.733Z,0.90
2023-08-11T21:08:20.714Z,0.75
2023-08-11T21:11:22.607Z,0.70
2023-08-11T21:14:24.886Z,0.80
2023-08-11T21:17:26.839Z,0.80
2023-08-11T21:20:28.745Z,0.82
2023-08-11T21:23:30.590Z,0.80
2023-08-11T21:26:32.638Z,0.80
2023-08-11T21:29:34.577Z,0.80
2023-08-11T21:32:36.528Z,0.70
2023-08-11T21:35:38.921Z,0.90
2023-08-11T21:38:40.807Z,0.73
2023-08-11T21:41:42.641Z,0.70
2023-08-11T21:44:44.548Z,0.88
2023-08-11T21:47:46.880Z,0.80
2023-08-11T21:53:50.596Z,0.85
2023-08-11T21:56:52.543Z,0.80
2023-08-11T21:59:54.505Z,0.60
2023-08-11T22:02:56.492Z,0.68
2023-08-11T22:05:58.927Z,0.82
2023-08-11T22:12:02.595Z,0.90
2023-08-11T22:15:05.997Z,0.80
2023-08-11T22:18:07.928Z,0.70
2023-08-11T22:21:09.988Z,0.82
2023-08-11T22:24:12.365Z,1.00
2023-08-11T22:30:17.329Z,0.70
2023-08-11T22:33:20.251Z,0.80
2023-08-11T22:36:22.171Z,0.90
2023-08-11T22:39:24.108Z,0.90
2023-08-11T22:42:27.551Z,0.90
2023-08-11T22:45:29.419Z,1.23
2023-08-11T22:48:31.465Z,1.30
2023-08-11T22:51:33.334Z,1.20
2023-08-11T22:54:35.250Z,1.10
2023-08-11T22:57:37.116Z,1.27
2023-08-11T23:00:39.574Z,1.30
2023-08-11T23:03:41.584Z,1.00
2023-08-11T23:06:43.574Z,1.45
2023-08-11T23:09:45.546Z,1.30
2023-08-11T23:12:47.439Z,1.30
2023-08-11T23:15:49.616Z,1.20
2023-08-11T23:18:51.696Z,1.70
2023-08-11T23:21:53.575Z,1.60
2023-08-11T23:24:55.612Z,1.80
2023-08-11T23:27:57.569Z,1.88
2023-08-11T23:30:59.460Z,2.45
2023-08-11T23:34:01.300Z,2.50
2023-08-11T23:37:03.223Z,2.67
2023-08-11T23:40:05.700Z,3.17
2023-08-11T23:46:14.979Z,3.00
2023-08-11T23:49:17.182Z,3.58
2023-08-11T23:52:19.626Z,3.22
2023-08-11T23:58:23.630Z,3.67
